createdAt,value
2019-01-19T00:05:02.214Z,645.96
2019-01-19T00:10:04.642Z,645.96
2019-01-19T00:15:07.110Z,645.86
2019-01-19T00:20:09.513Z,645.76
2019-01-19T00:25:11.977Z,645.66
2019-01-19T00:30:14.456Z,645.66
2019-01-19T00:35:17.910Z,645.66
2019-01-19T00:40:19.348Z,645.56
2019-01-19T00:45:21.801Z,645.66
2019-01-19T00:50:24.255Z,645.66
2019-01-19T00:55:26.787Z,645.66
2019-01-19T01:00:29.191Z,645.66
2019-01-19T01:05:31.631Z,645.56
2019-01-19T01:10:34.096Z,645.46
2019-01-19T01:15:36.609Z,645.36
2019-01-19T01:20:38.982Z,645.36
2019-01-19T01:25:41.442Z,645.36
2019-01-19T01:30:43.945Z,645.36
2019-01-19T01:35:46.402Z,645.46
2019-01-19T01:40:48.836Z,645.46
2019-01-19T01:45:51.282Z,645.46
2019-01-19T01:50:53.757Z,645.46
2019-01-19T01:55:56.229Z,645.36
2019-01-19T02:00:58.655Z,645.36
2019-01-19T02:06:01.200Z,645.26
2019-01-19T02:11:03.554Z,645.16
2019-01-19T02:16:06.047Z,645.06
2019-01-19T02:21:08.475Z,645.06
2019-01-19T02:26:10.940Z,645.06
2019-01-19T02:31:13.389Z,645.06
2019-01-19T02:36:15.856Z,645.06
2019-01-19T02:41:18.311Z,645.06
2019-01-19T02:46:20.756Z,645.06
2019-01-19T02:51:23.222Z,645.06
2019-01-19T02:56:25.668Z,645.06
2019-01-19T03:01:28.132Z,645.06
2019-01-19T03:06:30.598Z,644.96
2019-01-19T03:11:33.045Z,644.86
2019-01-19T03:16:35.514Z,644.86
2019-01-19T03:21:37.988Z,644.86
2019-01-19T03:26:40.563Z,644.86
2019-01-19T03:31:42.888Z,644.86
2019-01-19T03:36:45.377Z,644.86
2019-01-19T03:41:47.791Z,645.06
2019-01-19T03:46:50.249Z,645.06
2019-01-19T03:51:52.713Z,644.96
2019-01-19T03:56:55.169Z,645.06
2019-01-19T04:01:57.611Z,645.06
2019-01-19T04:07:00.072Z,645.06
2019-01-19T04:12:02.594Z,645.16
2019-01-19T04:17:04.997Z,645.26
2019-01-19T04:22:07.485Z,645.26
2019-01-19T04:27:09.942Z,645.26
2019-01-19T04:32:12.381Z,645.26
2019-01-19T04:37:14.942Z,645.26
2019-01-19T04:42:17.307Z,645.16
2019-01-19T04:47:19.778Z,645.06
2019-01-19T04:52:22.183Z,645.06
2019-01-19T04:57:24.668Z,645.06
2019-01-19T05:02:27.106Z,645.06
2019-01-19T05:07:29.576Z,645.06
2019-01-19T05:12:32.075Z,645.16
2019-01-19T05:17:34.480Z,645.16
2019-01-19T05:22:36.981Z,645.16
2019-01-19T05:27:44.403Z,645.16
2019-01-19T05:32:41.862Z,645.16
2019-01-19T05:37:44.363Z,645.06
2019-01-19T05:42:47.124Z,645.16
2019-01-19T05:47:49.225Z,645.16
2019-01-19T05:52:51.721Z,645.16
2019-01-19T05:57:54.151Z,645.06
2019-01-19T06:02:56.621Z,644.96
2019-01-19T06:07:59.029Z,644.86
2019-01-19T06:13:01.524Z,644.86
2019-01-19T06:18:03.965Z,644.86
2019-01-19T06:23:06.408Z,644.86
2019-01-19T06:28:08.966Z,644.86
2019-01-19T06:33:11.329Z,644.96
2019-01-19T06:38:14.114Z,644.86
2019-01-19T06:43:16.303Z,644.86
2019-01-19T06:48:18.760Z,644.86
2019-01-19T06:53:21.201Z,644.96
2019-01-19T06:58:23.601Z,644.96
2019-01-19T07:03:26.066Z,644.86
2019-01-19T07:08:28.515Z,644.86
2019-01-19T07:13:30.978Z,644.86
2019-01-19T07:18:33.469Z,644.96
2019-01-19T07:23:35.928Z,645.06
2019-01-19T07:28:38.386Z,645.26
2019-01-19T07:33:40.880Z,645.46
2019-01-19T07:38:43.259Z,645.56
2019-01-19T07:43:45.729Z,645.86
2019-01-19T07:48:48.174Z,646.16
2019-01-19T07:53:50.638Z,646.36
2019-01-19T07:58:53.096Z,646.66
2019-01-19T08:03:55.551Z,647.16
2019-01-19T08:08:58.001Z,648.06
2019-01-19T08:14:00.470Z,649.46
2019-01-19T08:19:02.917Z,651.86
2019-01-19T08:24:05.385Z,655.26
2019-01-19T08:29:07.839Z,2.5
2019-01-19T08:34:10.319Z,3.7
2019-01-19T08:39:12.784Z,3.7
2019-01-19T08:44:15.225Z,4.5
2019-01-19T08:49:17.683Z,6
2019-01-19T08:54:20.146Z,7.9
2019-01-19T08:59:22.594Z,10.4
2019-01-19T09:04:25.224Z,12.7
2019-01-19T09:09:27.503Z,14.2
2019-01-19T09:14:29.962Z,15
2019-01-19T09:19:32.501Z,15.5
2019-01-19T09:24:34.876Z,15.7
2019-01-19T09:29:37.373Z,16
2019-01-19T09:34:39.798Z,16.3
2019-01-19T09:39:42.251Z,16.1
2019-01-19T09:44:44.963Z,15.3
2019-01-19T09:49:47.197Z,14.6
2019-01-19T09:54:49.616Z,14.6
2019-01-19T09:59:52.083Z,14.9
2019-01-19T10:04:54.553Z,15.4
2019-01-19T10:09:56.997Z,15.8
2019-01-19T10:14:59.463Z,16.5
2019-01-19T10:20:01.967Z,17.8
2019-01-19T10:25:04.410Z,19
2019-01-19T10:30:12.151Z,20.3
2019-01-19T10:35:09.341Z,21.4
2019-01-19T10:40:11.784Z,22.3
2019-01-19T10:45:14.209Z,22.8
2019-01-19T10:50:16.705Z,23.6
2019-01-19T10:55:19.137Z,23.9
2019-01-19T11:00:21.650Z,23.7
2019-01-19T11:05:24.098Z,23.1
2019-01-19T11:10:26.558Z,21.8
2019-01-19T11:15:29.023Z,18.8
2019-01-19T11:20:31.441Z,16.7
2019-01-19T11:25:33.897Z,15.3
2019-01-19T11:30:36.324Z,15.4
2019-01-19T11:35:38.797Z,15.8
2019-01-19T11:40:41.245Z,16.3
2019-01-19T11:45:43.694Z,16.1
2019-01-19T11:50:46.226Z,16.2
2019-01-19T11:55:48.690Z,15.5
2019-01-19T12:00:51.076Z,15.5
2019-01-19T12:05:53.602Z,15.5
2019-01-19T12:10:56.086Z,15.8
2019-01-19T12:15:58.450Z,15.9
2019-01-19T12:21:00.912Z,15.8
2019-01-19T12:26:03.377Z,15.6
2019-01-19T12:31:05.840Z,16
2019-01-19T12:36:08.287Z,16.4
2019-01-19T12:41:10.737Z,15.7
2019-01-19T12:46:13.209Z,14.3
2019-01-19T12:51:15.647Z,13.4
2019-01-19T12:56:18.101Z,13.6
2019-01-19T13:01:20.568Z,13.4
2019-01-19T13:06:23.042Z,13.5
2019-01-19T13:11:25.490Z,13.2
2019-01-19T13:16:27.943Z,11.9
2019-01-19T13:21:30.423Z,10.5
2019-01-19T13:26:32.897Z,10.3
2019-01-19T13:31:35.408Z,10.6
2019-01-19T13:36:37.776Z,10.2
2019-01-19T13:41:40.226Z,10
2019-01-19T13:46:42.682Z,10
2019-01-19T13:51:45.146Z,9.5
2019-01-19T13:56:47.637Z,8.6
2019-01-19T14:01:50.053Z,7.4
2019-01-19T14:06:52.504Z,6.5
2019-01-19T14:11:55.047Z,5.7
2019-01-19T14:16:57.412Z,5
2019-01-19T14:21:59.877Z,4.4
2019-01-19T14:27:02.382Z,3.9
2019-01-19T14:32:04.789Z,3.5
2019-01-19T14:37:07.295Z,3
2019-01-19T14:42:09.781Z,2.4
2019-01-19T14:47:12.222Z,2.1
2019-01-19T14:52:14.628Z,1.9
2019-01-19T14:57:17.086Z,1.8
2019-01-19T15:02:19.559Z,1.7
2019-01-19T15:07:22.016Z,1.5
2019-01-19T15:12:24.475Z,1.1
2019-01-19T15:17:26.931Z,0.7
2019-01-19T15:22:29.423Z,0.2
2019-01-19T15:27:31.863Z,655.06
2019-01-19T15:32:34.371Z,654.76
2019-01-19T15:37:36.794Z,654.46
2019-01-19T15:42:39.257Z,654.06
2019-01-19T15:47:41.720Z,653.86
2019-01-19T15:52:44.209Z,653.66
2019-01-19T15:57:46.634Z,653.46
2019-01-19T16:02:49.098Z,653.26
2019-01-19T16:07:51.547Z,653.06
2019-01-19T16:12:54.107Z,652.86
2019-01-19T16:17:56.478Z,652.76
2019-01-19T16:22:58.913Z,652.66
2019-01-19T16:28:01.443Z,652.46
2019-01-19T16:33:03.829Z,652.36
2019-01-19T16:38:06.327Z,652.26
2019-01-19T16:43:09.036Z,652.16
2019-01-19T16:48:11.257Z,652.06
2019-01-19T16:53:13.689Z,651.96
2019-01-19T16:58:16.180Z,651.86
2019-01-19T17:03:18.562Z,651.86
2019-01-19T17:08:21.025Z,651.76
2019-01-19T17:13:23.479Z,651.66
2019-01-19T17:18:26.488Z,651.46
2019-01-19T17:23:29.293Z,651.36
2019-01-19T17:28:30.870Z,651.26
2019-01-19T17:33:33.332Z,651.26
2019-01-19T17:38:35.778Z,651.16
2019-01-19T17:43:38.227Z,650.96
2019-01-19T17:48:40.674Z,650.66
2019-01-19T17:58:45.597Z,650.16
2019-01-19T18:03:48.051Z,649.96
2019-01-19T18:23:57.883Z,650.06
2019-01-19T18:29:00.356Z,650.16
2019-01-19T18:34:02.797Z,650.36
2019-01-19T18:39:05.283Z,650.56
2019-01-19T18:44:07.711Z,650.56
2019-01-19T18:49:10.176Z,650.36
2019-01-19T18:54:12.650Z,649.96
2019-01-19T19:44:37.263Z,649.86
2019-01-19T19:49:39.657Z,650.06
2019-01-19T19:54:42.091Z,650.06
2019-01-19T19:59:44.638Z,650.16
2019-01-19T20:04:47.028Z,650.16
2019-01-19T20:09:49.487Z,650.16
2019-01-19T20:14:51.934Z,650.16
2019-01-19T20:19:54.382Z,650.16
2019-01-19T20:24:56.851Z,650.26
2019-01-19T20:29:59.317Z,650.36
2019-01-19T20:35:07.084Z,650.36
2019-01-19T20:40:04.239Z,650.26
2019-01-19T20:45:06.661Z,650.36
2019-01-19T20:50:09.166Z,650.36
2019-01-19T20:55:11.578Z,650.26
2019-01-19T21:00:14.544Z,650.36
2019-01-19T21:05:16.515Z,650.26
2019-01-19T21:10:18.953Z,650.36
2019-01-19T21:15:21.417Z,650.46
2019-01-19T21:20:23.871Z,650.46
2019-01-19T21:25:26.332Z,650.46
2019-01-19T21:30:28.844Z,650.56
2019-01-19T21:35:31.407Z,650.56
2019-01-19T21:40:38.845Z,650.46
2019-01-19T21:45:36.292Z,650.36
2019-01-19T21:50:38.623Z,650.46
2019-01-19T21:55:41.058Z,650.46
2019-01-19T22:00:43.550Z,650.46
2019-01-19T22:05:49.702Z,650.36
2019-01-19T22:10:48.471Z,650.46
2019-01-19T22:15:50.891Z,650.46
2019-01-19T22:20:53.337Z,650.36
2019-01-19T22:25:55.790Z,650.36
2019-01-19T22:30:58.275Z,650.26
2019-01-19T22:36:00.909Z,650.16
2019-01-19T22:41:03.242Z,650.16
2019-01-19T22:46:05.630Z,650.06
2019-01-19T22:51:11.261Z,649.86
2019-01-19T22:56:10.535Z,649.76
2019-01-19T23:01:13.030Z,649.66
2019-01-19T23:06:15.478Z,649.46
2019-01-19T23:11:17.906Z,649.46
2019-01-19T23:16:20.369Z,649.46
2019-01-19T23:21:22.829Z,649.56
2019-01-19T23:26:25.274Z,649.56
2019-01-19T23:31:27.740Z,649.66
2019-01-19T23:36:30.208Z,649.76
2019-01-19T23:41:32.686Z,649.86
2019-01-19T23:46:35.100Z,649.86
2019-01-19T23:51:37.563Z,649.76
2019-01-19T23:56:40.041Z,649.76
